createdAt,value
2023-01-30T00:07:09.830Z,8.95
2023-01-30T00:14:45.011Z,8.93
2023-01-30T00:22:19.170Z,8.48
2023-01-30T00:37:37.197Z,8.85
2023-01-30T00:45:31.779Z,8.93
2023-01-30T00:53:05.525Z,10.43
2023-01-30T01:00:41.144Z,9.63
2023-01-30T01:08:15.508Z,8.57
2023-01-30T01:30:59.791Z,10.43
2023-01-30T01:38:33.708Z,9.40
2023-01-30T01:46:15.475Z,9.43
2023-01-30T01:53:56.581Z,9.70
2023-01-30T02:01:33.018Z,10.00
2023-01-30T02:09:09.842Z,10.13
2023-01-30T02:16:47.575Z,10.52
2023-01-30T02:24:46.227Z,11.10
2023-01-30T02:32:33.473Z,11.55
2023-01-30T02:40:18.781Z,11.43
2023-01-30T02:48:00.489Z,10.98
2023-01-30T02:55:34.644Z,10.57
2023-01-30T03:03:36.155Z,11.05
2023-01-30T03:11:11.438Z,11.80
2023-01-30T03:18:47.450Z,12.30
2023-01-30T03:26:25.930Z,13.00
2023-01-30T03:34:01.279Z,11.23
2023-01-30T03:41:35.684Z,10.48
2023-01-30T03:49:10.929Z,11.98
2023-01-30T03:56:44.622Z,10.35
2023-01-30T04:04:20.252Z,11.57
2023-01-30T04:11:54.385Z,11.73
2023-01-30T04:19:29.491Z,9.63
2023-01-30T04:27:03.654Z,10.85
2023-01-30T04:42:12.911Z,10.70
2023-01-30T04:49:48.360Z,11.05
2023-01-30T04:57:22.200Z,11.10
2023-01-30T05:04:57.370Z,12.17
2023-01-30T05:12:31.704Z,11.18
2023-01-30T05:27:41.660Z,11.05
2023-01-30T05:35:17.379Z,13.07
2023-01-30T05:42:51.353Z,11.70
2023-01-30T05:50:26.938Z,12.17
2023-01-30T05:58:00.703Z,11.07
2023-01-30T06:05:38.691Z,13.27
2023-01-30T06:13:12.420Z,12.48
2023-01-30T06:20:50.267Z,11.03
2023-01-30T06:28:25.815Z,11.50
2023-01-30T06:36:01.174Z,10.75
2023-01-30T06:43:34.972Z,9.52
2023-01-30T06:51:10.361Z,11.13
2023-01-30T06:58:44.338Z,10.25
2023-01-30T07:06:20.097Z,10.38
2023-01-30T07:13:53.939Z,9.30
2023-01-30T07:21:29.259Z,10.23
2023-01-30T07:29:03.145Z,8.35
2023-01-30T07:36:38.715Z,8.17
2023-01-30T07:44:13.786Z,7.53
2023-01-30T07:51:49.085Z,6.32
2023-01-30T07:59:22.883Z,5.82
2023-01-30T08:06:58.071Z,5.00
2023-01-30T08:14:32.011Z,4.95
2023-01-30T08:22:07.237Z,5.07
2023-01-30T08:29:41.486Z,4.97
2023-01-30T08:37:17.957Z,4.55
2023-01-30T08:44:52.002Z,3.83
2023-01-30T08:52:27.266Z,2.80
2023-01-30T09:00:01.086Z,2.45
2023-01-30T09:07:36.355Z,2.20
2023-01-30T09:15:11.842Z,2.08
2023-01-30T09:22:47.191Z,2.60
2023-01-30T09:30:21.527Z,2.70
2023-01-30T09:37:56.933Z,2.50
2023-01-30T09:45:45.518Z,2.30
2023-01-30T09:53:31.648Z,1.77
2023-01-30T10:01:15.246Z,0.77
2023-01-30T10:08:59.905Z,0.90
2023-01-30T10:16:39.105Z,1.30
2023-01-30T10:24:38.384Z,1.90
2023-01-30T10:32:16.527Z,1.95
2023-01-30T10:39:58.924Z,1.52
2023-01-30T10:47:48.705Z,2.28
2023-01-30T10:55:37.552Z,1.27
2023-01-30T11:03:29.606Z,3.55
2023-01-30T11:11:25.075Z,2.05
2023-01-30T11:19:20.628Z,1.45
2023-01-30T11:26:57.968Z,1.77
2023-01-30T11:34:32.027Z,1.92
2023-01-30T11:42:12.192Z,1.97
2023-01-30T11:50:08.700Z,2.05
2023-01-30T11:57:54.192Z,2.65
2023-01-30T12:05:35.603Z,1.80
2023-01-30T12:13:19.136Z,3.13
2023-01-30T12:20:59.637Z,4.05
2023-01-30T12:28:43.235Z,1.52
2023-01-30T12:36:29.930Z,2.65
2023-01-30T12:44:40.136Z,1.50
2023-01-30T12:52:32.331Z,1.55
2023-01-30T13:00:26.004Z,1.80
2023-01-30T13:08:23.420Z,1.83
2023-01-30T13:16:05.934Z,1.30
2023-01-30T13:23:54.615Z,1.50
2023-01-30T13:31:34.000Z,2.47
2023-01-30T13:39:14.332Z,2.30
2023-01-30T13:46:52.721Z,1.67
2023-01-30T13:54:43.804Z,1.60
2023-01-30T14:02:21.648Z,1.45
2023-01-30T14:10:13.779Z,1.00
2023-01-30T14:18:01.847Z,0.45
2023-01-30T14:25:48.460Z,0.22
2023-01-30T14:33:48.931Z,0.40
2023-01-30T14:41:29.149Z,0.20
2023-01-30T14:49:14.668Z,0.85
2023-01-30T14:56:54.219Z,0.70
2023-01-30T15:04:33.789Z,0.50
2023-01-30T15:12:29.153Z,1.10
2023-01-30T15:20:19.240Z,1.95
2023-01-30T15:28:04.376Z,1.10
2023-01-30T15:35:39.662Z,1.30
2023-01-30T15:43:32.589Z,0.90
2023-01-30T15:51:13.730Z,1.50
2023-01-30T15:58:48.016Z,1.83
2023-01-30T16:06:33.177Z,1.60
2023-01-30T16:14:08.094Z,1.20
2023-01-30T16:21:47.341Z,1.38
2023-01-30T16:29:24.170Z,1.73
2023-01-30T16:37:04.536Z,1.25
2023-01-30T16:44:38.484Z,1.98
2023-01-30T16:52:20.429Z,1.43
2023-01-30T16:59:54.528Z,2.63
2023-01-30T17:07:38.644Z,1.60
2023-01-30T17:15:32.872Z,4.83
2023-01-30T17:23:10.649Z,2.33
2023-01-30T17:30:44.597Z,1.35
2023-01-30T17:38:20.030Z,2.03
2023-01-30T17:45:55.539Z,2.45
2023-01-30T17:53:32.170Z,2.15
2023-01-30T18:01:06.389Z,2.38
2023-01-30T18:08:41.902Z,2.42
2023-01-30T18:16:20.636Z,2.25
2023-01-30T18:23:55.911Z,2.50
2023-01-30T18:31:31.026Z,2.17
2023-01-30T18:39:07.427Z,2.72
2023-01-30T18:46:41.427Z,2.58
2023-01-30T18:54:17.064Z,3.03
2023-01-30T19:01:50.836Z,3.35
2023-01-30T19:09:27.569Z,2.60
2023-01-30T19:17:01.342Z,3.17
2023-01-30T19:24:36.474Z,2.93
2023-01-30T19:32:10.621Z,2.50
2023-01-30T19:39:45.743Z,3.10
2023-01-30T19:47:21.857Z,2.95
2023-01-30T19:54:57.415Z,3.72
2023-01-30T20:02:31.409Z,2.67
2023-01-30T20:10:07.651Z,3.50
2023-01-30T20:17:42.081Z,2.00
2023-01-30T20:25:17.656Z,2.80
2023-01-30T20:32:54.880Z,2.00
2023-01-30T20:40:30.117Z,2.13
2023-01-30T20:48:04.388Z,1.88
2023-01-30T20:55:39.646Z,2.05
2023-01-30T21:03:13.475Z,1.77
2023-01-30T21:10:49.048Z,1.60
2023-01-30T21:18:22.895Z,1.30
2023-01-30T21:25:58.503Z,3.40
2023-01-30T21:33:32.447Z,2.28
2023-01-30T21:41:27.632Z,0.87
2023-01-30T21:49:01.536Z,2.00
2023-01-30T21:56:37.819Z,2.57
2023-01-30T22:04:14.108Z,1.52
2023-01-30T22:11:49.557Z,1.35
2023-01-30T22:19:23.347Z,2.00
2023-01-30T22:26:58.777Z,2.40
2023-01-30T22:34:35.844Z,2.08
2023-01-30T22:42:11.279Z,2.80
2023-01-30T22:49:44.990Z,2.20
2023-01-30T22:57:20.400Z,1.97
2023-01-30T23:04:54.217Z,2.42
2023-01-30T23:12:48.453Z,2.30
2023-01-30T23:20:22.368Z,2.23
2023-01-30T23:27:57.421Z,2.40
2023-01-30T23:35:32.697Z,2.72
2023-01-30T23:43:08.028Z,3.05
2023-01-30T23:50:43.197Z,3.53
2023-01-30T23:58:18.574Z,2.30
